Time;durP1;ratioP1;P1;durP2;ratioP2;P2;SDS_P1;SDS_P2;PMS_P1;PMS_P2;Temp;Humidity;BMP_temperature;BMP_pressure;BME280_temperature;BME280_humidity;BME280_pressure;Samples;Min_cycle;Max_cycle;Signal;HPM_P1;HPM_P2
2023/07/07 00:00:34;;;;;;;;;5.33;5.00;;;;;18.41;66.94;101409.59;5057395;28;45257;-72
2023/07/07 00:02:59;;;;;;;;;7.33;6.00;;;;;18.59;66.88;101447.03;5058067;28;45396;-72
2023/07/07 00:05:25;;;;;;;;;7.00;5.33;;;;;18.58;66.54;101445.31;5058511;28;45371;-73
2023/07/07 00:07:50;;;;;;;;;6.33;5.00;;;;;18.55;67.50;101434.78;5057860;28;46449;-72
2023/07/07 00:10:16;;;;;;;;;5.67;5.67;;;;;18.51;67.55;101430.50;5057720;28;45451;-73
2023/07/07 00:12:41;;;;;;;;;7.00;7.00;;;;;18.51;67.57;101433.16;5058234;28;45332;-72
2023/07/07 00:15:07;;;;;;;;;5.00;5.00;;;;;18.49;67.61;101437.69;5058001;28;45507;-72
2023/07/07 00:17:33;;;;;;;;;5.33;5.33;;;;;18.44;67.61;101444.13;5057910;28;45460;-72
2023/07/07 00:20:03;;;;;;;;;8.00;5.33;;;;;18.41;67.23;101440.72;5057980;28;45431;-72
2023/07/07 00:22:31;;;;;;;;;4.33;4.33;;;;;18.37;67.83;101433.78;5057985;28;45432;-72
2023/07/07 00:24:57;;;;;;;;;6.33;3.67;;;;;18.37;67.37;101436.44;5058037;28;45345;-72
2023/07/07 00:27:22;;;;;;;;;8.00;5.00;;;;;18.36;66.90;101434.75;5057844;28;46758;-72
2023/07/07 00:29:47;;;;;;;;;6.00;6.00;;;;;18.35;67.39;101443.66;5057532;28;45379;-72
2023/07/07 00:32:13;;;;;;;;;5.33;5.33;;;;;18.31;66.75;101445.56;5057482;28;45369;-72
2023/07/07 00:34:38;;;;;;;;;8.00;5.33;;;;;18.26;66.75;101432.44;5058115;28;45420;-73
2023/07/07 00:37:04;;;;;;;;;8.00;6.00;;;;;18.23;67.27;101439.75;5057715;28;46425;-72
2023/07/07 00:39:29;;;;;;;;;9.33;7.00;;;;;18.17;67.27;101432.03;5057388;28;45436;-72
2023/07/07 00:41:54;;;;;;;;;5.67;4.00;;;;;18.18;67.05;101434.63;5057812;28;45217;-72
2023/07/07 00:44:20;;;;;;;;;6.00;6.00;;;;;18.21;67.06;101436.25;5057721;28;45344;-72
2023/07/07 00:46:45;;;;;;;;;12.67;12.67;;;;;18.26;66.82;101440.44;5057631;28;47420;-73
2023/07/07 00:49:21;;;;;;;;;6.67;6.67;;;;;18.22;66.16;101432.66;5057441;28;45213;-72
2023/07/07 00:51:56;;;;;;;;;6.33;5.00;;;;;18.25;66.78;101437.84;5057229;28;45426;-73
2023/07/07 00:54:34;;;;;;;;;6.33;5.67;;;;;18.18;66.40;101437.28;5057867;28;45296;-72
2023/07/07 00:57:04;;;;;;;;;6.00;6.00;;;;;18.10;66.78;101432.25;5057468;28;45596;-72
2023/07/07 00:59:34;;;;;;;;;6.00;6.00;;;;;18.15;66.87;101449.84;5057302;28;45385;-72
2023/07/07 01:02:06;;;;;;;;;4.67;4.67;;;;;18.12;66.74;101442.84;5057055;28;45359;-72
2023/07/07 01:04:32;;;;;;;;;8.67;6.33;;;;;18.12;66.14;101437.53;5057650;28;45444;-72
2023/07/07 01:07:30;;;;;;;;;7.00;6.00;;;;;18.09;65.57;101435.00;5057175;28;46011;-72
2023/07/07 01:09:55;;;;;;;;;9.67;7.33;;;;;18.07;65.76;101436.88;5034524;28;45346;-72
2023/07/07 01:12:21;;;;;;;;;10.67;6.67;;;;;17.99;67.13;101421.19;5034666;28;45421;-73
2023/07/07 01:14:49;;;;;;;;;7.00;6.00;;;;;18.03;65.85;101433.47;5035224;28;45501;-72
2023/07/07 01:18:13;;;;;;;;;7.67;5.67;;;;;17.98;66.47;101438.13;5034439;28;46503;-73
2023/07/07 01:21:01;;;;;;;;;5.33;4.00;;;;;17.96;66.19;101429.31;4936687;28;45536;-73
2023/07/07 01:23:43;;;;;;;;;8.67;6.00;;;;;17.94;66.67;101431.19;4936859;28;45447;-73
2023/07/07 01:26:45;;;;;;;;;8.33;7.00;;;;;17.91;65.80;101434.84;4936779;28;45419;-73
2023/07/07 01:29:48;;;;;;;;;24.33;21.67;;;;;17.87;66.46;101446.53;4936159;28;45472;-73
2023/07/07 01:32:19;;;;;;;;;50.67;39.33;;;;;17.85;67.12;101428.91;4916893;28;45477;-72
2023/07/07 01:34:46;;;;;;;;;60.33;46.67;;;;;17.87;66.53;101429.69;4917269;28;45442;-72
2023/07/07 01:37:11;;;;;;;;;50.00;39.00;;;;;17.78;66.78;101414.97;4917322;28;45468;-72
2023/07/07 01:39:38;;;;;;;;;57.67;45.00;;;;;17.83;66.66;101430.75;4916824;28;45404;-73
2023/07/07 01:42:12;;;;;;;;;49.00;37.67;;;;;17.82;66.85;101427.22;4917269;28;45394;-73
2023/07/07 01:44:50;;;;;;;;;42.00;36.00;;;;;17.81;67.37;101421.97;4917122;28;45533;-73
2023/07/07 01:47:39;;;;;;;;;48.33;36.00;;;;;17.76;66.66;101419.47;4916952;28;45431;-73
2023/07/07 01:50:17;;;;;;;;;57.00;41.33;;;;;17.74;66.43;101418.69;4939082;28;46135;-73
2023/07/07 01:52:52;;;;;;;;;49.33;38.00;;;;;17.72;67.31;101420.56;4974574;28;45340;-72
2023/07/07 01:55:47;;;;;;;;;42.67;34.67;;;;;17.71;66.91;101426.81;4974677;28;45495;-72
2023/07/07 01:58:15;;;;;;;;;32.67;25.33;;;;;17.68;67.19;101425.13;4975242;28;45295;-72
2023/07/07 02:00:42;;;;;;;;;31.33;26.00;;;;;17.58;67.71;101402.47;4974528;28;46143;-72
2023/07/07 02:03:10;;;;;;;;;24.00;23.00;;;;;17.71;67.09;101424.16;4974525;28;45415;-72
2023/07/07 02:05:37;;;;;;;;;27.33;24.67;;;;;17.48;68.01;101383.34;4974530;28;45475;-72
2023/07/07 02:08:03;;;;;;;;;22.33;19.33;;;;;17.66;67.29;101408.38;4974862;28;45473;-72
2023/07/07 02:10:28;;;;;;;;;23.33;22.33;;;;;17.67;66.77;101403.88;5013661;28;46551;-72
2023/07/07 02:12:53;;;;;;;;;19.00;17.67;;;;;17.61;67.63;101410.34;5014109;28;45383;-72
2023/07/07 02:15:19;;;;;;;;;16.33;13.00;;;;;17.61;67.22;101399.69;5014079;28;45483;-72
2023/07/07 02:17:44;;;;;;;;;15.67;12.00;;;;;17.58;67.54;101391.81;5014120;28;45516;-72
2023/07/07 02:20:10;;;;;;;;;12.33;9.67;;;;;17.58;67.79;101387.34;5013985;28;46293;-72
2023/07/07 02:22:37;;;;;;;;;13.00;9.67;;;;;17.56;67.55;101380.38;5013822;28;45445;-72
2023/07/07 02:25:03;;;;;;;;;10.00;6.33;;;;;17.39;67.38;101355.31;5015804;28;45505;-72
2023/07/07 02:27:28;;;;;;;;;7.00;7.00;;;;;17.55;66.83;101395.47;5045498;28;45515;-73
2023/07/07 02:29:53;;;;;;;;;7.00;5.00;;;;;17.55;67.82;101397.28;5059437;28;46278;-73
2023/07/07 02:32:19;;;;;;;;;6.33;5.33;;;;;17.58;67.38;101399.81;5059757;28;45300;-72
2023/07/07 02:34:47;;;;;;;;;7.00;6.00;;;;;17.58;67.32;101383.84;5059794;28;45462;-73
2023/07/07 02:37:17;;;;;;;;;3.67;3.67;;;;;17.58;67.59;101392.69;5059801;28;45444;-73
2023/07/07 02:39:43;;;;;;;;;4.33;4.00;;;;;17.56;67.08;101391.91;5059480;28;45431;-72
2023/07/07 02:42:09;;;;;;;;;4.00;4.00;;;;;17.53;67.18;101383.19;5059331;28;45364;-72
2023/07/07 02:44:34;;;;;;;;;4.00;2.00;;;;;17.53;66.62;101380.53;5059690;28;45163;-72
2023/07/07 02:46:59;;;;;;;;;4.00;4.00;;;;;17.49;67.30;101379.75;5058666;28;45485;-72
2023/07/07 02:49:25;;;;;;;;;6.00;4.00;;;;;17.50;67.08;101388.59;5059044;28;46092;-72
2023/07/07 02:51:50;;;;;;;;;2.00;2.00;;;;;17.49;67.03;101389.56;5059396;28;45494;-72
2023/07/07 02:54:15;;;;;;;;;5.00;5.00;;;;;17.39;67.26;101373.94;5059520;28;45190;-72
2023/07/07 02:56:41;;;;;;;;;6.00;4.00;;;;;17.41;67.86;101384.53;5059590;28;45404;-75
2023/07/07 02:59:06;;;;;;;;;6.33;3.33;;;;;17.40;67.13;101389.00;5058056;28;45418;-74
2023/07/07 03:01:32;;;;;;;;;5.00;3.00;;;;;17.41;67.24;101387.19;5058658;28;45478;-75
2023/07/07 03:03:58;;;;;;;;;7.00;4.67;;;;;17.36;67.63;101383.88;5059143;28;45441;-75
2023/07/07 03:06:24;;;;;;;;;5.00;3.67;;;;;17.39;67.68;101389.06;5059340;28;45364;-75
2023/07/07 03:08:50;;;;;;;;;4.33;3.00;;;;;17.37;67.08;101389.13;5057779;28;46262;-74
2023/07/07 03:11:18;;;;;;;;;5.00;3.00;;;;;17.31;67.91;101376.06;5058590;28;45344;-75
2023/07/07 03:13:48;;;;;;;;;2.33;2.33;;;;;17.36;67.56;101387.38;5058731;28;45390;-75
2023/07/07 03:16:23;;;;;;;;;4.00;4.00;;;;;17.36;67.50;101390.06;5059275;28;45259;-75
2023/07/07 03:18:53;;;;;;;;;4.00;4.00;;;;;17.27;68.07;101382.44;5058770;28;46488;-75
2023/07/07 03:21:20;;;;;;;;;5.33;4.00;;;;;17.33;68.04;101387.50;5058485;28;45482;-75
2023/07/07 03:23:45;;;;;;;;;2.00;2.00;;;;;17.32;67.82;101384.91;5059003;28;45294;-75
2023/07/07 03:26:14;;;;;;;;;3.00;3.00;;;;;17.32;67.99;101383.13;5058937;28;45289;-75
2023/07/07 03:28:39;;;;;;;;;5.00;4.00;;;;;17.29;68.04;101382.38;5058522;28;46236;-75
2023/07/07 03:31:10;;;;;;;;;5.00;3.33;;;;;17.21;68.29;101370.25;5058659;28;45381;-74
2023/07/07 03:33:35;;;;;;;;;4.00;4.00;;;;;17.29;68.37;101385.91;5058467;28;45368;-74
2023/07/07 03:36:01;;;;;;;;;3.00;3.00;;;;;17.27;67.55;101374.47;5058905;28;45450;-74
2023/07/07 03:38:26;;;;;;;;;3.33;3.33;;;;;17.21;68.47;101374.72;5058566;28;45594;-74
2023/07/07 03:40:52;;;;;;;;;4.33;2.67;;;;;17.26;68.44;101380.72;5058175;28;45249;-74
2023/07/07 03:43:18;;;;;;;;;4.00;4.00;;;;;17.21;67.95;101375.56;5058555;28;45406;-74
2023/07/07 03:45:44;;;;;;;;;3.00;3.00;;;;;17.23;69.09;101387.00;5058735;28;45360;-74
2023/07/07 03:48:09;;;;;;;;;3.67;3.67;;;;;17.19;68.48;101382.78;5058497;28;45362;-74
2023/07/07 03:50:34;;;;;;;;;3.00;3.00;;;;;17.18;68.56;101388.13;5058420;28;45375;-74
2023/07/07 03:53:00;;;;;;;;;4.00;4.00;;;;;17.17;68.60;101391.75;5058390;28;45355;-74
2023/07/07 03:55:25;;;;;;;;;6.00;3.67;;;;;17.17;68.75;101395.25;5058396;28;45756;-74
2023/07/07 03:57:51;;;;;;;;;3.67;3.67;;;;;17.13;68.76;101395.44;5057457;28;46521;-74
2023/07/07 04:00:16;;;;;;;;;2.33;2.33;;;;;17.12;68.53;101394.59;5058390;28;45423;-74
2023/07/07 04:02:43;;;;;;;;;3.33;3.00;;;;;17.15;69.01;101398.91;5057719;28;45633;-75
2023/07/07 04:05:09;;;;;;;;;5.00;4.67;;;;;17.16;69.13;101397.97;5057982;28;45443;-75
2023/07/07 04:07:35;;;;;;;;;7.33;5.00;;;;;17.17;69.54;101391.75;5058187;28;45361;-75
2023/07/07 04:10:00;;;;;;;;;8.67;5.33;;;;;17.11;68.82;101389.28;5057815;28;45369;-75
2023/07/07 04:12:25;;;;;;;;;6.67;5.00;;;;;17.16;68.53;101395.31;5058078;28;45703;-74
2023/07/07 04:14:51;;;;;;;;;11.00;10.00;;;;;17.16;69.40;101397.97;5058382;28;45313;-75
2023/07/07 04:17:16;;;;;;;;;17.33;13.67;;;;;16.96;69.20;101367.72;5057696;28;45420;-74
2023/07/07 04:19:41;;;;;;;;;15.33;13.67;;;;;17.12;69.39;101394.59;5058000;28;45338;-75
2023/07/07 04:22:06;;;;;;;;;20.00;19.00;;;;;17.18;69.74;101404.09;5057787;28;45419;-74
2023/07/07 04:24:32;;;;;;;;;17.00;15.00;;;;;17.19;69.69;101403.16;5058374;28;45257;-74
2023/07/07 04:26:57;;;;;;;;;15.67;11.67;;;;;17.22;69.37;101403.03;5057519;28;45531;-75
2023/07/07 04:29:22;;;;;;;;;15.00;12.33;;;;;17.26;69.21;101410.00;5057469;28;45258;-74
2023/07/07 04:31:48;;;;;;;;;6.33;5.00;;;;;17.26;69.40;101403.81;5057825;28;45503;-75
2023/07/07 04:34:15;;;;;;;;;8.33;7.00;;;;;17.26;69.54;101409.13;5057990;28;45496;-75
2023/07/07 04:36:40;;;;;;;;;10.00;9.00;;;;;17.27;69.85;101405.53;5057523;28;45454;-75
2023/07/07 04:39:07;;;;;;;;;7.33;5.00;;;;;17.29;69.59;101409.00;5057486;28;45379;-74
2023/07/07 04:41:32;;;;;;;;;9.67;5.33;;;;;17.33;69.39;101415.94;5057377;28;45450;-74
2023/07/07 04:43:59;;;;;;;;;5.00;4.00;;;;;17.37;69.04;101421.06;5057940;28;45808;-74
2023/07/07 04:46:31;;;;;;;;;7.00;5.00;;;;;17.35;69.15;101414.94;5057435;28;45964;-75
2023/07/07 04:48:56;;;;;;;;;6.33;6.00;;;;;17.38;69.98;101420.16;5056769;28;45452;-75
2023/07/07 04:51:22;;;;;;;;;3.67;3.67;;;;;17.42;68.71;101420.88;5057559;28;45522;-75
2023/07/07 04:53:47;;;;;;;;;6.00;5.00;;;;;17.39;69.56;101405.88;5057942;28;45421;-75
2023/07/07 04:56:19;;;;;;;;;5.67;5.00;;;;;17.30;69.09;101384.97;5056997;28;46975;-75
2023/07/07 04:58:48;;;;;;;;;5.33;5.00;;;;;17.49;69.59;101413.53;5057439;28;45428;-75
2023/07/07 05:01:26;;;;;;;;;4.00;4.00;;;;;17.54;69.08;101416.84;5057079;28;45382;-74
2023/07/07 05:03:55;;;;;;;;;8.33;4.67;;;;;17.60;69.01;101424.59;5057530;28;45238;-74
2023/07/07 05:06:23;;;;;;;;;4.67;4.67;;;;;17.65;68.72;101427.06;5057373;28;45392;-74
2023/07/07 05:08:48;;;;;;;;;8.67;4.00;;;;;17.65;68.87;101419.09;5056939;28;45396;-74
2023/07/07 05:11:17;;;;;;;;;8.00;5.00;;;;;17.71;68.56;101425.00;5057053;28;45415;-74
2023/07/07 05:13:45;;;;;;;;;4.00;4.00;;;;;17.78;68.43;101422.97;5057247;28;45323;-74
2023/07/07 05:16:13;;;;;;;;;4.00;4.00;;;;;17.82;68.26;101421.91;5057014;28;46694;-75
2023/07/07 05:18:39;;;;;;;;;8.33;6.00;;;;;17.87;68.07;101421.69;5057267;28;45415;-74
2023/07/07 05:21:07;;;;;;;;;7.67;5.33;;;;;17.95;67.83;101424.94;5057006;28;45385;-74
2023/07/07 05:23:33;;;;;;;;;5.00;5.00;;;;;17.96;66.90;101417.81;5057102;28;45366;-75
2023/07/07 05:25:59;;;;;;;;;4.00;4.00;;;;;18.02;66.87;101423.75;5057048;28;45445;-75
2023/07/07 05:28:24;;;;;;;;;5.00;5.00;;;;;18.13;67.12;101422.41;5056939;28;45213;-74
2023/07/07 05:30:50;;;;;;;;;8.33;4.67;;;;;18.18;67.04;101426.63;5057091;28;45368;-74
2023/07/07 05:33:15;;;;;;;;;5.33;4.00;;;;;18.14;66.53;101419.69;5057069;28;45407;-74
2023/07/07 05:35:52;;;;;;;;;5.00;4.00;;;;;18.24;65.95;101423.69;5056634;28;46321;-74
2023/07/07 05:38:21;;;;;;;;;4.00;4.00;;;;;18.33;65.75;101438.41;5057116;28;45397;-74
2023/07/07 05:40:46;;;;;;;;;2.67;2.33;;;;;18.33;65.60;101424.19;5056764;28;45370;-73
2023/07/07 05:43:13;;;;;;;;;6.67;4.00;;;;;18.44;65.02;101437.91;5057108;28;45623;-75
2023/07/07 05:45:38;;;;;;;;;6.00;5.00;;;;;18.51;64.87;101435.84;5054817;28;45535;-75
2023/07/07 05:48:05;;;;;;;;;4.00;4.00;;;;;18.55;64.40;101438.28;5056626;28;45439;-77
2023/07/07 05:50:30;;;;;;;;;7.33;5.33;;;;;18.61;63.57;101438.00;5056755;28;45283;-73
2023/07/07 05:52:56;;;;;;;;;6.67;4.00;;;;;18.66;63.45;101436.94;5056461;28;45599;-76
2023/07/07 05:55:28;;;;;;;;;4.33;3.00;;;;;18.76;63.37;101441.81;5056376;28;46492;-75
2023/07/07 05:57:54;;;;;;;;;6.33;5.00;;;;;18.47;63.20;101381.75;5056544;28;45478;-78
2023/07/07 06:00:19;;;;;;;;;4.67;3.33;;;;;18.90;62.55;101437.66;5058633;28;45225;-76
2023/07/07 06:02:45;;;;;;;;;3.67;3.67;;;;;18.78;62.25;101415.91;5059988;28;45341;-75
2023/07/07 06:05:10;;;;;;;;;5.33;4.00;;;;;18.98;62.13;101426.59;5060078;28;45541;-75
2023/07/07 06:07:35;;;;;;;;;3.33;3.33;;;;;19.14;61.79;101440.97;5060079;28;45510;-75
2023/07/07 06:10:01;;;;;;;;;4.00;4.00;;;;;19.24;61.45;101434.25;5060309;28;45388;-75
2023/07/07 06:12:26;;;;;;;;;4.33;4.00;;;;;19.29;61.29;101434.88;5060147;28;45477;-75
2023/07/07 06:14:51;;;;;;;;;7.33;4.33;;;;;19.40;60.65;101438.84;5059969;28;45395;-75
2023/07/07 06:17:17;;;;;;;;;5.33;4.00;;;;;19.43;59.81;101434.22;5059696;28;45426;-75
2023/07/07 06:19:42;;;;;;;;;4.00;4.00;;;;;19.49;60.11;101427.72;5060060;28;45451;-75
2023/07/07 06:22:08;;;;;;;;;7.00;4.33;;;;;20.11;58.25;101435.31;5060172;28;45511;-75
2023/07/07 06:24:33;;;;;;;;;5.00;5.00;;;;;20.53;56.77;101437.56;5059725;28;46402;-74
2023/07/07 06:26:58;;;;;;;;;6.33;5.33;;;;;20.51;56.36;101443.94;5059644;28;45517;-75
2023/07/07 06:29:24;;;;;;;;;4.00;3.33;;;;;20.40;55.97;101436.44;5059819;28;45422;-74
2023/07/07 06:31:49;;;;;;;;;3.00;3.00;;;;;20.34;56.11;101443.00;5059910;28;45490;-74
2023/07/07 06:34:15;;;;;;;;;3.33;3.33;;;;;20.38;55.85;101441.03;5059535;28;46184;-75
2023/07/07 06:36:40;;;;;;;;;5.00;5.00;;;;;20.41;55.99;101456.06;5059597;28;45392;-75
2023/07/07 06:39:05;;;;;;;;;3.33;3.33;;;;;20.42;55.78;101452.41;5059973;28;45525;-75
2023/07/07 06:41:31;;;;;;;;;4.00;3.33;;;;;20.46;56.07;101448.63;5059749;28;45186;-75
2023/07/07 06:43:56;;;;;;;;;4.67;3.33;;;;;20.49;55.92;101454.72;5059432;28;46652;-75
2023/07/07 06:46:24;;;;;;;;;5.00;5.00;;;;;20.56;56.10;101451.69;5059625;28;45253;-74
2023/07/07 06:48:50;;;;;;;;;2.33;2.33;;;;;20.57;55.72;101440.06;5059613;28;45238;-75
2023/07/07 06:51:15;;;;;;;;;5.33;5.00;;;;;20.68;55.47;101454.63;5059466;28;45433;-74
2023/07/07 06:53:40;;;;;;;;;6.33;5.00;;;;;20.67;55.14;101447.53;5059375;28;46285;-75
2023/07/07 06:56:06;;;;;;;;;3.67;3.67;;;;;20.74;54.57;101445.41;5059254;28;45264;-75
2023/07/07 06:58:33;;;;;;;;;5.00;5.00;;;;;20.83;54.30;101449.38;5059602;28;45353;-75
2023/07/07 07:00:58;;;;;;;;;5.00;4.33;;;;;20.91;53.62;101454.31;5059307;28;45768;-75
2023/07/07 07:03:24;;;;;;;;;2.67;2.00;;;;;20.96;53.96;101446.91;5059167;28;46187;-75
2023/07/07 07:05:50;;;;;;;;;8.00;3.00;;;;;21.04;54.13;101448.19;5059358;28;45356;-75
2023/07/07 07:08:15;;;;;;;;;2.67;2.67;;;;;21.09;53.43;101444.41;5059235;28;45278;-75
2023/07/07 07:10:40;;;;;;;;;5.67;5.00;;;;;21.22;53.22;101450.78;5059433;28;45398;-74
2023/07/07 07:13:08;;;;;;;;;3.67;3.67;;;;;21.35;53.14;101453.66;5058669;28;45419;-75
2023/07/07 07:15:33;;;;;;;;;3.00;3.00;;;;;21.42;52.54;101444.31;5058954;28;45448;-75
2023/07/07 07:17:59;;;;;;;;;4.00;4.00;;;;;21.56;52.15;101454.25;5059301;28;45365;-73
2023/07/07 07:20:24;;;;;;;;;3.67;3.67;;;;;22.51;50.67;101446.84;5059212;28;45390;-74
2023/07/07 07:22:49;;;;;;;;;3.67;3.67;;;;;24.28;47.43;101443.38;5058890;28;45582;-73
2023/07/07 07:25:15;;;;;;;;;4.00;4.00;;;;;24.69;45.80;101430.69;5058899;28;45753;-73
2023/07/07 07:27:41;;;;;;;;;2.33;2.33;;;;;24.57;45.02;101450.34;5058947;28;45422;-73
2023/07/07 07:30:07;;;;;;;;;2.67;2.67;;;;;24.22;45.63;101454.53;5059264;28;45415;-73
2023/07/07 07:32:33;;;;;;;;;4.00;2.67;;;;;24.24;46.68;101457.13;5058517;28;47266;-73
2023/07/07 07:34:58;;;;;;;;;5.67;4.00;;;;;24.43;45.77;101454.88;5058531;28;45421;-73
2023/07/07 07:37:24;;;;;;;;;3.33;3.33;;;;;24.32;45.14;101461.00;5058846;28;45491;-73
2023/07/07 07:39:49;;;;;;;;;6.00;3.00;;;;;24.07;45.36;101453.78;5059050;28;45302;-70
2023/07/07 07:42:14;;;;;;;;;3.00;3.00;;;;;23.82;46.09;101447.34;5058729;28;46164;-70
2023/07/07 07:44:40;;;;;;;;;5.33;4.00;;;;;23.74;47.01;101456.91;5058465;28;45420;-70
2023/07/07 07:47:05;;;;;;;;;9.33;9.33;;;;;23.55;46.93;101441.16;5058790;28;45336;-70
2023/07/07 07:49:31;;;;;;;;;3.33;3.33;;;;;23.50;46.82;101456.69;5058766;28;45400;-69
2023/07/07 07:51:56;;;;;;;;;4.00;3.00;;;;;23.29;47.91;101423.09;5058451;28;46383;-69
2023/07/07 07:54:23;;;;;;;;;5.00;4.00;;;;;23.42;46.74;101455.38;5058470;28;45303;-70
2023/07/07 07:56:49;;;;;;;;;5.00;4.00;;;;;23.40;46.24;101445.72;5058183;28;45598;-69
2023/07/07 07:59:14;;;;;;;;;2.67;2.67;;;;;23.46;46.73;101456.91;5058434;28;45559;-69
2023/07/07 08:01:39;;;;;;;;;4.00;3.00;;;;;23.82;46.63;101452.72;5057891;28;46601;-72
2023/07/07 08:04:05;;;;;;;;;3.00;3.00;;;;;24.26;45.92;101453.38;5058546;28;45872;-72
2023/07/07 08:06:31;;;;;;;;;4.67;4.00;;;;;24.25;45.35;101448.09;5058416;28;45414;-72
2023/07/07 08:08:56;;;;;;;;;3.00;3.00;;;;;24.17;45.30;101454.03;5058439;28;45431;-71
2023/07/07 08:11:40;;;;;;;;;3.00;2.67;;;;;24.11;45.56;101451.75;5058006;28;46467;-72
2023/07/07 08:14:11;;;;;;;;;3.33;3.33;;;;;24.07;46.03;101447.56;5058086;28;45424;-72
2023/07/07 08:16:37;;;;;;;;;2.67;2.67;;;;;24.27;46.24;101454.25;5058007;28;45318;-72
2023/07/07 08:19:02;;;;;;;;;3.67;3.33;;;;;24.42;46.23;101444.22;5057427;28;45302;-72
2023/07/07 08:21:28;;;;;;;;;1.67;1.67;;;;;24.47;45.68;101447.44;5055778;28;46525;-73
2023/07/07 08:23:53;;;;;;;;;5.00;5.00;;;;;24.39;45.09;101439.91;5057380;28;45282;-72
2023/07/07 08:26:18;;;;;;;;;6.67;4.67;;;;;24.39;45.88;101452.53;5058282;28;45459;-72
2023/07/07 08:28:44;;;;;;;;;4.00;3.00;;;;;24.39;45.83;101449.84;5057719;28;45490;-72
2023/07/07 08:31:09;;;;;;;;;4.00;4.00;;;;;24.77;44.83;101454.38;5057444;28;46743;-73
2023/07/07 08:33:43;;;;;;;;;3.00;3.00;;;;;25.17;43.51;101443.38;5057575;28;45376;-74
2023/07/07 08:36:09;;;;;;;;;4.00;2.67;;;;;25.20;43.92;101440.47;5057840;28;45234;-71
2023/07/07 08:38:35;;;;;;;;;6.00;3.00;;;;;25.34;43.60;101448.44;5058186;28;45378;-71
2023/07/07 08:41:00;;;;;;;;;4.00;4.00;;;;;25.51;42.71;101443.59;5057463;28;45896;-70
2023/07/07 08:43:29;;;;;;;;;3.00;3.00;;;;;25.45;42.89;101438.69;5057408;28;45418;-71
2023/07/07 08:46:22;;;;;;;;;4.00;4.00;;;;;25.49;44.06;101442.88;5057896;28;45371;-71
2023/07/07 08:49:11;;;;;;;;;4.00;4.00;;;;;25.44;43.84;101439.63;5057911;28;45420;-71
2023/07/07 08:51:46;;;;;;;;;4.33;3.33;;;;;25.38;43.33;101440.97;5056932;28;46935;-71
2023/07/07 08:54:26;;;;;;;;;5.00;4.00;;;;;25.32;43.29;101436.88;5057353;28;45399;-71
2023/07/07 08:57:10;;;;;;;;;3.33;3.00;;;;;25.37;43.21;101441.91;5057008;28;45360;-72
2023/07/07 08:59:45;;;;;;;;;4.00;3.00;;;;;25.35;44.02;101452.81;5057538;28;45348;-73
2023/07/07 09:02:22;;;;;;;;;6.67;5.00;;;;;25.36;43.31;101443.75;5056784;28;46383;-72
2023/07/07 09:04:56;;;;;;;;;4.67;3.33;;;;;25.36;42.80;101451.84;5057185;28;45399;-71
2023/07/07 09:07:51;;;;;;;;;4.00;2.67;;;;;25.39;43.40;101447.22;5057411;28;45407;-72
2023/07/07 09:10:53;;;;;;;;;3.00;3.00;;;;;25.40;43.06;101449.81;5057537;28;45358;-72
2023/07/07 09:13:28;;;;;;;;;5.67;3.00;;;;;25.50;42.89;101448.16;5056852;28;46369;-72
2023/07/07 09:16:11;;;;;;;;;6.00;4.00;;;;;26.62;41.48;101455.81;5057312;28;45788;-72
2023/07/07 09:18:47;;;;;;;;;3.67;3.33;;;;;27.73;40.60;101447.66;5057439;28;45289;-72
2023/07/07 09:21:23;;;;;;;;;6.00;4.67;;;;;27.85;38.53;101451.16;5057010;28;45422;-72
2023/07/07 09:23:53;;;;;;;;;4.00;3.67;;;;;27.64;39.08;101440.31;5056930;28;45298;-72
2023/07/07 09:26:28;;;;;;;;;3.00;3.00;;;;;27.45;39.31;101452.69;5056782;28;45309;-71
2023/07/07 09:28:57;;;;;;;;;4.00;3.00;;;;;27.21;37.78;101452.00;5057117;28;45407;-72
2023/07/07 09:31:37;;;;;;;;;2.33;2.33;;;;;27.00;39.47;101449.19;5056785;28;45357;-73
2023/07/07 09:34:03;;;;;;;;;3.00;3.00;;;;;26.96;38.96;101443.19;5058427;28;45608;-72
2023/07/07 09:36:35;;;;;;;;;3.33;3.33;;;;;27.26;38.46;101445.22;5060525;28;45423;-72
2023/07/07 09:39:23;;;;;;;;;3.67;3.67;;;;;28.31;38.08;101433.69;5059546;28;45502;-72
2023/07/07 09:42:11;;;;;;;;;3.00;3.00;;;;;29.62;35.95;101431.94;5060690;28;45390;-72
2023/07/07 09:44:48;;;;;;;;;7.33;7.33;;;;;31.55;32.10;101428.81;5060059;28;46169;-71
2023/07/07 09:47:39;;;;;;;;;4.00;2.00;;;;;33.62;31.27;101432.47;5051595;28;45448;-71
2023/07/07 09:50:12;;;;;;;;;3.33;3.33;;;;;35.92;26.96;101424.34;5057950;28;45329;-72
2023/07/07 09:52:47;;;;;;;;;4.67;2.67;;;;;37.94;26.65;101423.03;5048283;28;45315;-72
2023/07/07 09:55:18;;;;;;;;;3.00;3.00;;;;;39.75;23.88;101426.50;5039793;28;47333;-71
2023/07/07 09:58:02;;;;;;;;;2.67;2.67;;;;;41.31;22.00;101421.16;5056202;28;45424;-72
2023/07/07 10:00:32;;;;;;;;;3.67;2.67;;;;;42.73;23.57;101425.97;5059947;28;45228;-70
2023/07/07 10:02:59;;;;;;;;;3.33;3.00;;;;;43.76;21.60;101425.06;5049406;28;45450;-71
2023/07/07 10:05:34;;;;;;;;;2.00;2.00;;;;;44.53;18.93;101428.75;5039837;28;45519;-71
2023/07/07 10:08:03;;;;;;;;;2.00;2.00;;;;;45.48;19.97;101421.72;5039462;27;45406;-71
2023/07/07 10:10:28;;;;;;;;;2.33;2.00;;;;;46.15;17.87;101425.50;5049593;28;45498;-71
2023/07/07 10:12:53;;;;;;;;;0.33;0.33;;;;;46.91;19.25;101422.03;5059994;28;45248;-72
2023/07/07 10:15:32;;;;;;;;;3.00;3.00;;;;;47.41;17.00;101424.75;5049960;28;46322;-71
2023/07/07 10:18:05;;;;;;;;;2.75;2.00;;;;;47.99;17.38;101432.41;5038718;28;45352;-71
2023/07/07 10:20:31;;;;;;;;;3.00;3.00;;;;;48.46;15.31;101423.19;5039756;28;45452;-72
2023/07/07 10:22:56;;;;;;;;;5.00;5.00;;;;;48.73;15.83;101439.78;5039873;28;45379;-72
2023/07/07 10:25:22;;;;;;;;;6.50;5.00;;;;;49.07;16.20;101427.28;5048609;28;45411;-72
2023/07/07 10:27:53;;;;;;;;;1.25;1.25;;;;;49.23;16.98;101423.38;5059427;28;45503;-71
2023/07/07 10:30:19;;;;;;;;;3.50;3.50;;;;;49.09;16.29;101403.50;5059481;28;45343;-72
2023/07/07 10:32:46;;;;;;;;;4.75;3.25;;;;;48.87;14.98;101411.31;5059652;28;45526;-72
2023/07/07 10:35:16;;;;;;;;;2.00;2.00;;;;;48.78;16.81;101402.59;5052141;28;46251;-72
2023/07/07 10:37:42;;;;;;;;;3.00;3.00;;;;;48.88;15.31;101408.22;5039274;28;45683;-73
2023/07/07 10:40:15;;;;;;;;;3.50;3.00;;;;;49.06;15.26;101414.38;5045692;28;45303;-72
2023/07/07 10:42:40;;;;;;;;;3.00;3.00;;;;;49.09;15.22;101386.72;5059672;28;45445;-72
2023/07/07 10:45:07;;;;;;;;;4.25;4.00;;;;;49.23;15.24;101408.56;5057977;28;45345;-72
2023/07/07 10:47:35;;;;;;;;;3.75;3.50;;;;;49.19;14.31;101413.00;5059351;28;45301;-72
2023/07/07 10:50:02;;;;;;;;;6.00;3.50;;;;;48.96;15.27;101406.81;5054382;27;45360;-72
2023/07/07 10:53:05;;;;;;;;;5.50;4.50;;;;;48.64;15.17;101396.69;5039134;28;45519;-72
2023/07/07 10:55:47;;;;;;;;;4.00;4.00;;;;;48.51;15.72;101405.59;5038805;27;46058;-72
2023/07/07 10:58:31;;;;;;;;;4.00;4.00;;;;;48.31;15.55;101403.53;5038817;28;45291;-72
2023/07/07 11:01:02;;;;;;;;;4.00;4.00;;;;;47.79;16.14;101399.66;5050914;28;45337;-71
2023/07/07 11:04:01;;;;;;;;;4.00;4.00;;;;;46.89;16.54;101403.88;5059222;28;45422;-72
2023/07/07 11:06:35;;;;;;;;;4.50;4.50;;;;;45.77;16.11;101391.00;5058415;28;45702;-72
2023/07/07 11:09:32;;;;;;;;;6.00;5.25;;;;;44.40;17.23;101383.53;5059098;28;45447;-72
2023/07/07 11:12:26;;;;;;;;;6.00;4.00;;;;;42.84;17.91;101388.31;5058959;28;45298;-72
2023/07/07 11:15:07;;;;;;;;;6.00;6.00;;;;;41.81;18.54;101387.16;5058776;28;45416;-72
2023/07/07 11:17:55;;;;;;;;;4.00;3.00;;;;;40.28;19.19;101384.22;5058830;28;45583;-72
2023/07/07 11:20:30;;;;;;;;;5.50;4.00;;;;;39.04;20.63;101372.75;5058778;28;45250;-71
2023/07/07 11:23:23;;;;;;;;;6.75;4.50;;;;;38.13;21.01;101375.53;5059195;28;45289;-72
2023/07/07 11:26:00;;;;;;;;;5.67;5.67;;;;;37.19;21.90;101371.16;5059161;28;45386;-72
2023/07/07 11:28:51;;;;;;;;;4.00;4.00;;;;;36.24;22.96;101348.28;5058535;28;46181;-72
2023/07/07 11:31:25;;;;;;;;;5.00;4.00;;;;;35.63;23.53;101356.63;5036181;28;45474;-72
2023/07/07 11:33:56;;;;;;;;;4.00;4.00;;;;;35.00;24.14;101351.25;5019657;28;45553;-71
2023/07/07 11:36:37;;;;;;;;;4.67;4.67;;;;;34.43;24.27;101352.41;5036621;28;45282;-72